createdAt,value
2022-11-12T00:00:18.459Z,38.10
2022-11-12T00:03:48.570Z,39.40
2022-11-12T00:07:10.284Z,44.00
2022-11-12T00:10:32.351Z,42.30
2022-11-12T00:13:53.880Z,24.90
2022-11-12T00:17:15.277Z,47.70
2022-11-12T00:20:37.012Z,39.80
2022-11-12T00:23:58.816Z,37.30
2022-11-12T00:27:20.436Z,37.10
2022-11-12T00:30:42.313Z,41.10
2022-11-12T00:34:04.055Z,40.30
2022-11-12T00:37:25.917Z,43.30
2022-11-12T00:40:47.668Z,46.00
2022-11-12T00:44:09.339Z,43.00
2022-11-12T00:47:30.923Z,44.40
2022-11-12T00:51:00.355Z,44.10
2022-11-12T00:54:22.042Z,34.80
2022-11-12T00:57:43.623Z,39.10
2022-11-12T01:01:11.615Z,38.40
2022-11-12T01:04:33.352Z,43.90
2022-11-12T01:07:56.181Z,39.20
2022-11-12T01:11:22.433Z,40.70
2022-11-12T01:14:43.916Z,37.40
2022-11-12T01:18:05.648Z,41.80
2022-11-12T01:21:30.054Z,37.00
2022-11-12T01:24:51.852Z,37.40
2022-11-12T01:28:13.664Z,38.20
2022-11-12T01:31:37.612Z,40.10
2022-11-12T01:34:59.423Z,41.00
2022-11-12T01:38:21.078Z,32.60
2022-11-12T01:41:42.742Z,39.30
2022-11-12T01:45:15.979Z,39.00
2022-11-12T01:48:45.433Z,43.10
2022-11-12T01:52:22.332Z,37.10
2022-11-12T01:55:43.718Z,38.00
2022-11-12T01:59:17.919Z,37.60
2022-11-12T02:02:40.666Z,42.60
2022-11-12T02:06:11.121Z,46.30
2022-11-12T02:09:33.434Z,47.40
2022-11-12T02:16:41.461Z,42.30
2022-11-12T02:20:03.897Z,48.10
2022-11-12T02:23:25.440Z,39.30
2022-11-12T02:26:51.388Z,33.80
2022-11-12T02:30:13.262Z,39.00
2022-11-12T02:33:34.844Z,29.40
2022-11-12T02:36:56.551Z,37.00
2022-11-12T02:40:18.103Z,39.60
2022-11-12T02:43:40.599Z,48.10
2022-11-12T02:47:01.801Z,48.70
2022-11-12T02:50:23.559Z,50.20
2022-11-12T02:53:44.989Z,50.00
2022-11-12T02:57:06.733Z,46.70
2022-11-12T03:00:28.442Z,47.80
2022-11-12T03:03:50.533Z,46.80
2022-11-12T03:07:12.072Z,39.90
2022-11-12T03:10:34.604Z,39.20
2022-11-12T03:17:17.546Z,41.30
2022-11-12T03:20:39.322Z,42.70
2022-11-12T03:24:01.799Z,40.90
2022-11-12T03:27:23.192Z,40.90
2022-11-12T03:30:45.309Z,38.50
2022-11-12T03:34:07.147Z,37.40
2022-11-12T03:37:28.737Z,36.40
2022-11-12T03:40:50.592Z,38.00
2022-11-12T03:44:12.251Z,41.00
2022-11-12T03:47:34.021Z,39.60
2022-11-12T03:50:59.950Z,37.90
2022-11-12T03:54:21.682Z,37.90
2022-11-12T03:57:44.183Z,35.40
2022-11-12T04:01:05.642Z,36.80
2022-11-12T04:04:47.166Z,34.70
2022-11-12T04:08:34.593Z,36.80
2022-11-12T04:12:15.984Z,33.70
2022-11-12T04:15:37.226Z,34.60
2022-11-12T04:19:20.428Z,36.60
2022-11-12T04:26:21.621Z,36.20
2022-11-12T04:30:02.443Z,37.50
2022-11-12T04:33:24.251Z,36.40
2022-11-12T04:36:46.030Z,39.80
2022-11-12T04:40:28.444Z,35.50
2022-11-12T04:44:08.957Z,40.50
2022-11-12T04:47:38.430Z,40.40
2022-11-12T04:51:02.449Z,43.00
2022-11-12T04:54:23.914Z,44.80
2022-11-12T04:57:45.532Z,49.70
2022-11-12T05:01:07.325Z,46.20
2022-11-12T05:04:29.355Z,45.10
2022-11-12T05:07:53.207Z,45.00
2022-11-12T05:11:14.947Z,34.90
2022-11-12T05:14:36.663Z,34.50
2022-11-12T05:17:58.389Z,29.60
2022-11-12T05:21:43.323Z,29.80
2022-11-12T05:25:06.539Z,28.70
2022-11-12T05:28:28.362Z,31.40
2022-11-12T05:31:50.351Z,28.70
2022-11-12T05:35:12.211Z,26.60
2022-11-12T05:38:33.830Z,27.70
2022-11-12T05:42:12.544Z,32.10
2022-11-12T05:45:35.393Z,32.10
2022-11-12T05:48:57.125Z,30.80
2022-11-12T05:52:18.936Z,31.50
2022-11-12T05:55:40.702Z,56.30
2022-11-12T05:59:04.888Z,49.50
2022-11-12T06:02:26.554Z,42.80
2022-11-12T06:05:48.308Z,34.20
2022-11-12T06:09:10.759Z,37.00
2022-11-12T06:12:32.312Z,35.40
2022-11-12T06:15:55.264Z,33.70
2022-11-12T06:22:38.162Z,28.50
2022-11-12T06:26:00.266Z,27.80
2022-11-12T06:29:21.768Z,27.50
2022-11-12T06:32:49.983Z,30.10
2022-11-12T06:36:14.094Z,27.00
2022-11-12T06:39:35.422Z,30.00
2022-11-12T06:42:58.698Z,30.80
2022-11-12T06:46:20.642Z,31.20
2022-11-12T06:49:42.164Z,26.30
2022-11-12T06:53:03.878Z,40.20
2022-11-12T06:56:25.759Z,36.00
2022-11-12T06:59:47.655Z,36.70
2022-11-12T07:03:10.071Z,35.90
2022-11-12T07:06:34.072Z,36.30
2022-11-12T07:09:55.913Z,37.70
2022-11-12T07:13:19.324Z,34.90
2022-11-12T07:16:41.118Z,35.70
2022-11-12T07:20:04.365Z,41.00
2022-11-12T07:23:26.330Z,36.80
2022-11-12T07:26:47.960Z,36.90
2022-11-12T07:30:10.110Z,39.50
2022-11-12T07:33:32.505Z,36.80
2022-11-12T07:36:53.805Z,33.80
2022-11-12T07:40:15.587Z,32.60
2022-11-12T07:43:38.947Z,37.10
2022-11-12T07:47:00.386Z,36.50
2022-11-12T07:50:22.116Z,36.10
2022-11-12T07:53:44.858Z,35.90
2022-11-12T08:00:27.778Z,27.70
2022-11-12T08:03:49.387Z,27.00
2022-11-12T08:07:11.276Z,29.70
2022-11-12T08:10:32.901Z,27.80
2022-11-12T08:13:54.455Z,24.50
2022-11-12T08:17:16.062Z,22.00
2022-11-12T08:20:38.086Z,21.60
2022-11-12T08:23:59.466Z,21.90
2022-11-12T08:27:21.316Z,19.10
2022-11-12T08:30:43.224Z,20.30
2022-11-12T08:34:12.367Z,22.60
2022-11-12T08:37:34.156Z,22.00
2022-11-12T08:40:55.764Z,20.40
2022-11-12T08:44:17.314Z,22.00
2022-11-12T08:47:39.083Z,24.30
2022-11-12T08:51:02.500Z,23.30
2022-11-12T08:54:24.813Z,22.30
2022-11-12T08:57:46.801Z,26.50
2022-11-12T09:01:09.353Z,22.40
2022-11-12T09:04:30.952Z,27.90
2022-11-12T09:08:07.857Z,23.00
2022-11-12T09:11:29.479Z,20.60
2022-11-12T09:14:53.476Z,24.90
2022-11-12T09:18:18.713Z,22.10
2022-11-12T09:21:40.291Z,21.50
2022-11-12T09:25:02.212Z,23.50
2022-11-12T09:28:27.505Z,22.90
2022-11-12T09:31:50.966Z,21.70
2022-11-12T09:35:12.773Z,19.40
2022-11-12T09:38:34.739Z,19.50
2022-11-12T09:42:01.737Z,18.60
2022-11-12T09:45:29.978Z,19.00
2022-11-12T09:49:02.821Z,18.50
2022-11-12T09:52:28.545Z,20.80
2022-11-12T09:55:51.282Z,18.70
2022-11-12T09:59:14.052Z,22.50
2022-11-12T10:02:45.669Z,22.30
2022-11-12T10:06:19.294Z,19.10
2022-11-12T10:09:53.771Z,18.50
2022-11-12T10:13:30.966Z,20.80
2022-11-12T10:17:02.431Z,17.20
2022-11-12T10:20:43.177Z,17.60
2022-11-12T10:24:09.862Z,20.50
2022-11-12T10:27:39.470Z,19.00
2022-11-12T10:31:14.014Z,18.30
2022-11-12T10:34:36.101Z,19.20
2022-11-12T10:38:04.660Z,15.90
2022-11-12T10:41:33.144Z,17.10
2022-11-12T10:45:24.039Z,20.00
2022-11-12T10:48:56.447Z,18.30
2022-11-12T10:52:41.192Z,17.00
2022-11-12T10:56:05.934Z,18.50
2022-11-12T10:59:27.427Z,17.60
2022-11-12T11:02:52.094Z,18.50
2022-11-12T11:06:16.596Z,20.20
2022-11-12T11:10:00.882Z,20.00
2022-11-12T11:13:28.236Z,14.50
2022-11-12T11:16:54.444Z,15.20
2022-11-12T11:20:29.051Z,14.40
2022-11-12T11:23:55.010Z,18.30
2022-11-12T11:27:32.355Z,44.20
2022-11-12T11:31:03.009Z,15.10
2022-11-12T11:34:49.643Z,16.60
2022-11-12T11:38:35.994Z,14.00
2022-11-12T11:42:03.680Z,15.80
2022-11-12T11:45:49.003Z,15.60
2022-11-12T11:49:58.014Z,15.30
2022-11-12T11:53:30.054Z,11.90
2022-11-12T11:56:58.685Z,15.80
2022-11-12T12:00:23.077Z,15.00
2022-11-12T12:03:44.409Z,13.90
2022-11-12T12:07:20.603Z,14.40
2022-11-12T12:11:11.551Z,15.00
2022-11-12T12:15:05.908Z,12.90
2022-11-12T12:18:30.356Z,12.50
2022-11-12T12:21:53.018Z,10.80
2022-11-12T12:25:23.843Z,13.70
2022-11-12T12:28:55.136Z,11.80
2022-11-12T12:32:24.483Z,12.00
2022-11-12T12:36:03.233Z,12.50
2022-11-12T12:40:00.255Z,11.60
2022-11-12T12:43:24.766Z,12.50
2022-11-12T12:46:52.637Z,12.00
2022-11-12T12:50:19.823Z,12.20
2022-11-12T12:53:41.379Z,14.80
2022-11-12T12:57:04.859Z,14.10
2022-11-12T13:00:38.338Z,12.20
2022-11-12T13:04:08.932Z,16.40
2022-11-12T13:07:48.647Z,13.00
2022-11-12T13:11:10.293Z,10.30
2022-11-12T13:14:34.786Z,13.70
2022-11-12T13:17:56.570Z,11.80
2022-11-12T13:21:20.789Z,15.70
2022-11-12T13:25:01.522Z,10.50
2022-11-12T13:28:23.408Z,11.60
2022-11-12T13:31:45.089Z,9.90
2022-11-12T13:35:27.266Z,13.10
2022-11-12T13:38:49.495Z,13.10
2022-11-12T13:42:37.206Z,11.20
2022-11-12T13:46:12.186Z,10.00
2022-11-12T13:49:35.442Z,10.10
2022-11-12T13:52:58.919Z,10.60
2022-11-12T13:56:31.873Z,9.50
2022-11-12T14:03:37.852Z,11.50
2022-11-12T14:07:47.619Z,10.40
2022-11-12T14:11:31.038Z,12.40
2022-11-12T14:15:42.612Z,12.50
2022-11-12T14:19:14.763Z,12.50
2022-11-12T14:22:43.993Z,11.60
2022-11-12T14:26:05.896Z,12.60
2022-11-12T14:29:32.957Z,13.50
2022-11-12T14:33:08.420Z,10.10
2022-11-12T14:36:30.695Z,11.70
2022-11-12T14:39:52.093Z,11.00
2022-11-12T14:43:46.843Z,10.80
2022-11-12T14:47:09.691Z,10.50
2022-11-12T14:50:39.054Z,11.80
2022-11-12T14:54:14.076Z,11.80
2022-11-12T14:57:36.023Z,11.20
2022-11-12T15:00:57.516Z,12.30
2022-11-12T15:04:21.877Z,13.70
2022-11-12T15:08:10.147Z,12.80
2022-11-12T15:11:47.487Z,15.00
2022-11-12T15:15:17.991Z,14.10
2022-11-12T15:18:40.473Z,14.50
2022-11-12T15:22:03.794Z,14.50
2022-11-12T15:25:32.647Z,16.00
2022-11-12T15:29:15.493Z,14.30
2022-11-12T15:32:36.998Z,19.00
2022-11-12T15:36:01.482Z,22.00
2022-11-12T15:39:25.906Z,25.20
2022-11-12T15:42:48.386Z,18.20
2022-11-12T15:46:15.622Z,19.40
2022-11-12T15:49:56.414Z,20.30
2022-11-12T15:53:18.696Z,20.40
2022-11-12T15:56:40.313Z,28.00
2022-11-12T16:00:08.455Z,24.00
2022-11-12T16:03:31.387Z,28.20
2022-11-12T16:06:53.008Z,36.30
2022-11-12T16:10:16.680Z,34.30
2022-11-12T16:13:38.539Z,30.50
2022-11-12T16:17:00.318Z,30.30
2022-11-12T16:20:25.256Z,31.90
2022-11-12T16:24:18.812Z,41.60
2022-11-12T16:27:41.132Z,36.60
2022-11-12T16:31:03.001Z,39.70
2022-11-12T16:34:25.906Z,38.70
2022-11-12T16:37:47.927Z,38.50
2022-11-12T16:41:11.985Z,40.20
2022-11-12T16:44:33.331Z,40.80
2022-11-12T16:47:56.158Z,33.70
2022-11-12T16:51:20.226Z,47.80
2022-11-12T16:54:42.738Z,43.40
2022-11-12T16:58:07.515Z,42.80
2022-11-12T17:01:31.392Z,39.10
2022-11-12T17:04:53.367Z,37.50
2022-11-12T17:08:17.967Z,34.70
2022-11-12T17:11:39.575Z,26.20
2022-11-12T17:15:01.873Z,26.20
2022-11-12T17:18:23.622Z,23.10
2022-11-12T17:21:45.222Z,22.60
2022-11-12T17:25:07.325Z,32.70
2022-11-12T17:28:30.486Z,34.20
2022-11-12T17:31:53.023Z,38.00
2022-11-12T17:35:15.399Z,36.00
2022-11-12T17:38:37.562Z,35.80
2022-11-12T17:41:59.762Z,31.20
2022-11-12T17:45:21.167Z,28.40
2022-11-12T17:48:42.963Z,27.30
2022-11-12T17:52:04.677Z,35.20
2022-11-12T17:55:26.364Z,41.40
2022-11-12T17:58:50.130Z,30.20
2022-11-12T18:02:12.538Z,50.00
2022-11-12T18:09:00.428Z,52.60
2022-11-12T18:12:21.922Z,45.60
2022-11-12T18:15:43.778Z,47.50
2022-11-12T18:19:05.264Z,49.00
2022-11-12T18:22:27.004Z,47.70
2022-11-12T18:25:48.785Z,53.80
2022-11-12T18:29:10.532Z,49.30
2022-11-12T18:32:32.368Z,47.60
2022-11-12T18:36:05.406Z,44.40
2022-11-12T18:39:27.570Z,39.00
2022-11-12T18:42:49.009Z,42.50
2022-11-12T18:46:11.381Z,43.00
2022-11-12T18:49:33.351Z,40.10
2022-11-12T18:52:55.352Z,36.00
2022-11-12T18:56:19.588Z,40.70
2022-11-12T18:59:41.433Z,41.20
2022-11-12T19:03:03.440Z,43.90
2022-11-12T19:06:25.385Z,37.10
2022-11-12T19:09:47.066Z,41.20
2022-11-12T19:13:08.623Z,43.30
2022-11-12T19:16:30.409Z,40.60
2022-11-12T19:19:52.109Z,44.40
2022-11-12T19:23:13.809Z,38.80
2022-11-12T19:26:35.272Z,42.00
2022-11-12T19:30:02.619Z,39.50
2022-11-12T19:33:25.775Z,42.50
2022-11-12T19:36:48.459Z,41.30
2022-11-12T19:40:14.779Z,41.70
2022-11-12T19:43:36.640Z,40.50
2022-11-12T19:46:58.732Z,39.80
2022-11-12T19:50:24.549Z,44.20
2022-11-12T19:53:46.370Z,41.30
2022-11-12T19:57:08.025Z,41.20
2022-11-12T20:00:29.993Z,44.70
2022-11-12T20:03:51.891Z,42.40
2022-11-12T20:07:13.960Z,50.80
2022-11-12T20:10:39.067Z,42.50
2022-11-12T20:14:00.853Z,49.60
2022-11-12T20:17:22.537Z,45.50
2022-11-12T20:20:56.215Z,44.10
2022-11-12T20:24:17.897Z,46.30
2022-11-12T20:27:39.672Z,54.10
2022-11-12T20:31:03.579Z,56.50
2022-11-12T20:34:25.152Z,60.00
2022-11-12T20:37:46.755Z,57.30
2022-11-12T20:41:14.059Z,61.60
2022-11-12T20:44:35.779Z,53.10
2022-11-12T20:47:57.470Z,53.10
2022-11-12T20:51:25.262Z,57.00
2022-11-12T20:54:47.196Z,50.80
2022-11-12T20:58:08.976Z,52.40
2022-11-12T21:01:30.939Z,58.10
2022-11-12T21:04:54.704Z,62.70
2022-11-12T21:08:16.314Z,60.50
2022-11-12T21:11:37.892Z,63.30
2022-11-12T21:15:00.228Z,64.20
2022-11-12T21:18:27.067Z,62.70
2022-11-12T21:21:48.795Z,57.80
2022-11-12T21:25:10.542Z,61.70
2022-11-12T21:28:34.998Z,61.60
2022-11-12T21:31:56.270Z,56.40
2022-11-12T21:35:18.402Z,61.70
2022-11-12T21:38:40.208Z,54.00
2022-11-12T21:42:01.840Z,49.40
2022-11-12T21:45:23.668Z,53.90
2022-11-12T21:48:48.239Z,52.30
2022-11-12T21:52:13.019Z,52.40
2022-11-12T21:55:34.810Z,53.20
2022-11-12T21:59:00.756Z,55.90
2022-11-12T22:02:22.764Z,51.60
2022-11-12T22:05:44.573Z,57.80
2022-11-12T22:09:06.356Z,59.10
2022-11-12T22:12:27.987Z,57.30
2022-11-12T22:15:50.719Z,64.10
2022-11-12T22:19:12.939Z,63.80
2022-11-12T22:22:34.669Z,70.50
2022-11-12T22:25:57.571Z,72.70
2022-11-12T22:29:19.275Z,72.20
2022-11-12T22:32:41.048Z,73.70
2022-11-12T22:36:05.348Z,77.50
2022-11-12T22:39:27.285Z,73.40
2022-11-12T22:42:48.864Z,71.30
2022-11-12T22:46:12.258Z,67.40
2022-11-12T22:49:33.702Z,66.90
2022-11-12T22:52:56.245Z,75.00
2022-11-12T22:56:18.035Z,72.40
2022-11-12T22:59:39.834Z,73.50
2022-11-12T23:03:01.379Z,71.90
2022-11-12T23:06:23.265Z,68.30
2022-11-12T23:09:45.067Z,77.60
2022-11-12T23:13:06.939Z,75.60
2022-11-12T23:16:30.708Z,76.30
2022-11-12T23:19:52.327Z,78.60
2022-11-12T23:23:14.224Z,76.50
2022-11-12T23:26:35.815Z,77.40
2022-11-12T23:29:57.367Z,78.20
2022-11-12T23:33:19.143Z,75.40
2022-11-12T23:36:40.957Z,73.40
2022-11-12T23:40:03.023Z,74.50
2022-11-12T23:43:24.551Z,67.40
2022-11-12T23:46:46.289Z,70.90
2022-11-12T23:50:08.435Z,64.20
2022-11-12T23:53:30.995Z,62.00
2022-11-12T23:56:52.544Z,64.40
